sensor_id;sensor_type;location;lat;lon;timestamp;P1;durP1;ratioP1;P2;durP2;ratioP2
75526;SDS011;64107;49.248;7.006;2022-12-07T00:02:23;10.60;;;5.63;;
75526;SDS011;64107;49.248;7.006;2022-12-07T00:07:15;11.70;;;6.03;;
75526;SDS011;64107;49.248;7.006;2022-12-07T00:09:41;11.05;;;6.30;;
75526;SDS011;64107;49.248;7.006;2022-12-07T00:12:07;14.23;;;6.93;;
75526;SDS011;64107;49.248;7.006;2022-12-07T00:14:34;13.18;;;6.13;;
75526;SDS011;64107;49.248;7.006;2022-12-07T00:17:00;12.23;;;6.32;;
75526;SDS011;64107;49.248;7.006;2022-12-07T00:19:26;15.43;;;6.82;;
75526;SDS011;64107;49.248;7.006;2022-12-07T00:21:52;16.38;;;6.07;;
75526;SDS011;64107;49.248;7.006;2022-12-07T00:24:18;11.02;;;5.65;;
75526;SDS011;64107;49.248;7.006;2022-12-07T00:26:44;12.77;;;6.93;;
75526;SDS011;64107;49.248;7.006;2022-12-07T00:29:17;11.77;;;7.00;;
75526;SDS011;64107;49.248;7.006;2022-12-07T00:31:44;11.90;;;5.80;;
75526;SDS011;64107;49.248;7.006;2022-12-07T00:34:12;13.52;;;6.18;;
75526;SDS011;64107;49.248;7.006;2022-12-07T00:36:40;8.07;;;5.15;;
75526;SDS011;64107;49.248;7.006;2022-12-07T00:39:06;11.18;;;6.30;;
75526;SDS011;64107;49.248;7.006;2022-12-07T00:43:59;13.43;;;6.22;;
75526;SDS011;64107;49.248;7.006;2022-12-07T00:46:25;10.60;;;5.78;;
75526;SDS011;64107;49.248;7.006;2022-12-07T00:48:52;13.07;;;7.15;;
75526;SDS011;64107;49.248;7.006;2022-12-07T00:51:19;10.25;;;6.03;;
75526;SDS011;64107;49.248;7.006;2022-12-07T00:53:47;10.50;;;5.57;;
75526;SDS011;64107;49.248;7.006;2022-12-07T00:58:40;10.82;;;6.53;;
75526;SDS011;64107;49.248;7.006;2022-12-07T01:03:33;15.57;;;7.10;;
75526;SDS011;64107;49.248;7.006;2022-12-07T01:08:26;16.25;;;8.73;;
75526;SDS011;64107;49.248;7.006;2022-12-07T01:10:59;16.58;;;9.55;;
75526;SDS011;64107;49.248;7.006;2022-12-07T01:13:30;14.75;;;7.30;;
75526;SDS011;64107;49.248;7.006;2022-12-07T01:15:58;11.52;;;6.93;;
75526;SDS011;64107;49.248;7.006;2022-12-07T01:18:25;11.55;;;6.63;;
75526;SDS011;64107;49.248;7.006;2022-12-07T01:23:49;10.85;;;6.55;;
75526;SDS011;64107;49.248;7.006;2022-12-07T01:26:16;10.73;;;6.07;;
75526;SDS011;64107;49.248;7.006;2022-12-07T01:28:45;13.57;;;5.35;;
75526;SDS011;64107;49.248;7.006;2022-12-07T01:31:12;13.13;;;6.43;;
75526;SDS011;64107;49.248;7.006;2022-12-07T01:33:43;10.80;;;5.25;;
75526;SDS011;64107;49.248;7.006;2022-12-07T01:36:15;14.30;;;5.05;;
75526;SDS011;64107;49.248;7.006;2022-12-07T01:38:46;12.77;;;5.25;;
75526;SDS011;64107;49.248;7.006;2022-12-07T01:41:14;6.72;;;4.35;;
75526;SDS011;64107;49.248;7.006;2022-12-07T01:46:31;3.85;;;2.33;;
75526;SDS011;64107;49.248;7.006;2022-12-07T01:48:57;11.23;;;5.75;;
75526;SDS011;64107;49.248;7.006;2022-12-07T01:51:24;9.68;;;6.00;;
75526;SDS011;64107;49.248;7.006;2022-12-07T01:56:17;15.35;;;5.95;;
75526;SDS011;64107;49.248;7.006;2022-12-07T01:58:45;10.18;;;4.78;;
75526;SDS011;64107;49.248;7.006;2022-12-07T02:01:11;9.32;;;4.90;;
75526;SDS011;64107;49.248;7.006;2022-12-07T02:06:05;14.32;;;7.38;;
75526;SDS011;64107;49.248;7.006;2022-12-07T02:08:32;15.93;;;7.07;;
75526;SDS011;64107;49.248;7.006;2022-12-07T02:10:59;11.90;;;4.35;;
75526;SDS011;64107;49.248;7.006;2022-12-07T02:13:28;9.82;;;5.68;;
75526;SDS011;64107;49.248;7.006;2022-12-07T02:16:03;12.30;;;4.97;;
75526;SDS011;64107;49.248;7.006;2022-12-07T02:30:05;8.90;;;4.80;;
75526;SDS011;64107;49.248;7.006;2022-12-07T02:35:15;8.57;;;4.28;;
75526;SDS011;64107;49.248;7.006;2022-12-07T02:37:53;4.88;;;2.80;;
75526;SDS011;64107;49.248;7.006;2022-12-07T02:42:55;9.50;;;4.35;;
75526;SDS011;64107;49.248;7.006;2022-12-07T02:45:24;8.82;;;4.93;;
75526;SDS011;64107;49.248;7.006;2022-12-07T02:47:51;9.90;;;5.05;;
75526;SDS011;64107;49.248;7.006;2022-12-07T02:50:20;14.57;;;6.00;;
75526;SDS011;64107;49.248;7.006;2022-12-07T02:52:46;13.35;;;6.07;;
75526;SDS011;64107;49.248;7.006;2022-12-07T02:55:12;6.22;;;2.75;;
75526;SDS011;64107;49.248;7.006;2022-12-07T02:57:48;12.18;;;6.53;;
75526;SDS011;64107;49.248;7.006;2022-12-07T03:00:22;9.68;;;4.70;;
75526;SDS011;64107;49.248;7.006;2022-12-07T03:03:04;5.95;;;4.07;;
75526;SDS011;64107;49.248;7.006;2022-12-07T03:08:47;10.63;;;5.85;;
75526;SDS011;64107;49.248;7.006;2022-12-07T03:11:21;12.95;;;5.97;;
75526;SDS011;64107;49.248;7.006;2022-12-07T03:14:05;11.40;;;6.18;;
75526;SDS011;64107;49.248;7.006;2022-12-07T03:19:28;8.73;;;5.10;;
75526;SDS011;64107;49.248;7.006;2022-12-07T03:21:57;14.98;;;5.53;;
75526;SDS011;64107;49.248;7.006;2022-12-07T03:24:37;7.93;;;3.58;;
75526;SDS011;64107;49.248;7.006;2022-12-07T03:27:08;10.68;;;6.10;;
75526;SDS011;64107;49.248;7.006;2022-12-07T03:29:43;9.98;;;6.00;;
75526;SDS011;64107;49.248;7.006;2022-12-07T03:32:23;9.77;;;5.47;;
75526;SDS011;64107;49.248;7.006;2022-12-07T03:34:53;9.75;;;4.75;;
75526;SDS011;64107;49.248;7.006;2022-12-07T03:37:34;9.07;;;4.53;;
75526;SDS011;64107;49.248;7.006;2022-12-07T03:42:58;8.80;;;4.00;;
75526;SDS011;64107;49.248;7.006;2022-12-07T03:45:30;6.68;;;2.97;;
75526;SDS011;64107;49.248;7.006;2022-12-07T03:48:09;10.50;;;4.30;;
75526;SDS011;64107;49.248;7.006;2022-12-07T03:51:01;9.80;;;4.72;;
75526;SDS011;64107;49.248;7.006;2022-12-07T03:53:59;5.45;;;2.72;;
75526;SDS011;64107;49.248;7.006;2022-12-07T03:56:24;7.15;;;2.92;;
75526;SDS011;64107;49.248;7.006;2022-12-07T03:58:51;9.30;;;4.22;;
75526;SDS011;64107;49.248;7.006;2022-12-07T04:01:18;7.90;;;4.28;;
75526;SDS011;64107;49.248;7.006;2022-12-07T04:03:44;8.20;;;3.75;;
75526;SDS011;64107;49.248;7.006;2022-12-07T04:06:10;7.78;;;4.30;;
75526;SDS011;64107;49.248;7.006;2022-12-07T04:11:02;4.22;;;2.38;;
75526;SDS011;64107;49.248;7.006;2022-12-07T04:13:28;9.77;;;3.75;;
75526;SDS011;64107;49.248;7.006;2022-12-07T04:15:54;9.63;;;5.55;;
75526;SDS011;64107;49.248;7.006;2022-12-07T04:18:20;10.20;;;5.35;;
75526;SDS011;64107;49.248;7.006;2022-12-07T04:20:46;10.57;;;4.57;;
75526;SDS011;64107;49.248;7.006;2022-12-07T04:23:12;10.75;;;5.45;;
75526;SDS011;64107;49.248;7.006;2022-12-07T04:25:38;4.20;;;2.38;;
75526;SDS011;64107;49.248;7.006;2022-12-07T04:30:31;7.40;;;3.78;;
75526;SDS011;64107;49.248;7.006;2022-12-07T04:32:57;9.30;;;4.60;;
75526;SDS011;64107;49.248;7.006;2022-12-07T04:35:23;12.75;;;6.40;;
75526;SDS011;64107;49.248;7.006;2022-12-07T04:37:49;13.25;;;5.97;;
75526;SDS011;64107;49.248;7.006;2022-12-07T04:40:15;11.00;;;5.05;;
75526;SDS011;64107;49.248;7.006;2022-12-07T04:42:41;12.10;;;5.47;;
75526;SDS011;64107;49.248;7.006;2022-12-07T04:45:07;14.15;;;5.88;;
75526;SDS011;64107;49.248;7.006;2022-12-07T04:47:33;14.77;;;6.28;;
75526;SDS011;64107;49.248;7.006;2022-12-07T04:49:59;12.68;;;6.43;;
75526;SDS011;64107;49.248;7.006;2022-12-07T04:52:25;14.70;;;6.95;;
75526;SDS011;64107;49.248;7.006;2022-12-07T04:54:51;14.63;;;6.05;;
75526;SDS011;64107;49.248;7.006;2022-12-07T04:57:17;12.98;;;5.88;;
75526;SDS011;64107;49.248;7.006;2022-12-07T04:59:44;12.27;;;5.97;;
75526;SDS011;64107;49.248;7.006;2022-12-07T05:02:10;13.05;;;6.15;;
75526;SDS011;64107;49.248;7.006;2022-12-07T05:04:36;13.73;;;6.85;;
75526;SDS011;64107;49.248;7.006;2022-12-07T05:07:02;12.52;;;6.50;;
75526;SDS011;64107;49.248;7.006;2022-12-07T05:09:28;9.18;;;4.93;;
75526;SDS011;64107;49.248;7.006;2022-12-07T05:11:54;12.93;;;5.70;;
75526;SDS011;64107;49.248;7.006;2022-12-07T05:14:20;13.90;;;6.32;;
75526;SDS011;64107;49.248;7.006;2022-12-07T05:16:47;13.70;;;6.72;;
75526;SDS011;64107;49.248;7.006;2022-12-07T05:19:14;11.68;;;5.55;;
75526;SDS011;64107;49.248;7.006;2022-12-07T05:21:40;10.82;;;5.75;;
75526;SDS011;64107;49.248;7.006;2022-12-07T05:24:07;15.90;;;6.28;;
75526;SDS011;64107;49.248;7.006;2022-12-07T05:26:35;12.75;;;5.88;;
75526;SDS011;64107;49.248;7.006;2022-12-07T05:29:02;10.95;;;5.47;;
75526;SDS011;64107;49.248;7.006;2022-12-07T05:31:28;11.75;;;6.15;;
75526;SDS011;64107;49.248;7.006;2022-12-07T05:36:20;6.50;;;4.28;;
75526;SDS011;64107;49.248;7.006;2022-12-07T05:41:13;12.52;;;4.82;;
75526;SDS011;64107;49.248;7.006;2022-12-07T05:43:59;9.25;;;4.70;;
75526;SDS011;64107;49.248;7.006;2022-12-07T05:48:52;12.80;;;4.90;;
75526;SDS011;64107;49.248;7.006;2022-12-07T05:51:18;10.75;;;5.03;;
75526;SDS011;64107;49.248;7.006;2022-12-07T05:53:44;10.00;;;4.93;;
75526;SDS011;64107;49.248;7.006;2022-12-07T05:56:11;11.80;;;5.47;;
75526;SDS011;64107;49.248;7.006;2022-12-07T05:58:37;9.40;;;4.60;;
75526;SDS011;64107;49.248;7.006;2022-12-07T06:01:21;12.05;;;6.38;;
75526;SDS011;64107;49.248;7.006;2022-12-07T06:03:48;15.60;;;7.50;;
75526;SDS011;64107;49.248;7.006;2022-12-07T06:06:14;15.60;;;7.22;;
75526;SDS011;64107;49.248;7.006;2022-12-07T06:08:40;9.73;;;4.55;;
75526;SDS011;64107;49.248;7.006;2022-12-07T06:11:06;12.90;;;6.40;;
75526;SDS011;64107;49.248;7.006;2022-12-07T06:13:50;15.45;;;7.03;;
75526;SDS011;64107;49.248;7.006;2022-12-07T06:16:16;16.10;;;7.07;;
75526;SDS011;64107;49.248;7.006;2022-12-07T06:18:42;15.63;;;8.23;;
75526;SDS011;64107;49.248;7.006;2022-12-07T06:21:08;17.77;;;7.68;;
75526;SDS011;64107;49.248;7.006;2022-12-07T06:23:34;14.70;;;7.75;;
75526;SDS011;64107;49.248;7.006;2022-12-07T06:26:00;18.33;;;6.78;;
75526;SDS011;64107;49.248;7.006;2022-12-07T06:28:26;11.13;;;5.50;;
75526;SDS011;64107;49.248;7.006;2022-12-07T06:30:59;14.05;;;7.20;;
75526;SDS011;64107;49.248;7.006;2022-12-07T06:33:26;13.52;;;6.30;;
75526;SDS011;64107;49.248;7.006;2022-12-07T06:35:52;16.98;;;8.20;;
75526;SDS011;64107;49.248;7.006;2022-12-07T06:38:19;17.10;;;5.53;;
75526;SDS011;64107;49.248;7.006;2022-12-07T06:40:45;14.55;;;5.45;;
75526;SDS011;64107;49.248;7.006;2022-12-07T06:43:11;13.32;;;6.75;;
75526;SDS011;64107;49.248;7.006;2022-12-07T06:45:37;16.27;;;8.23;;
75526;SDS011;64107;49.248;7.006;2022-12-07T06:48:03;12.63;;;5.65;;
75526;SDS011;64107;49.248;7.006;2022-12-07T06:52:55;13.80;;;6.22;;
75526;SDS011;64107;49.248;7.006;2022-12-07T06:55:21;17.92;;;8.63;;
75526;SDS011;64107;49.248;7.006;2022-12-07T06:57:47;12.05;;;6.03;;
75526;SDS011;64107;49.248;7.006;2022-12-07T07:00:13;16.85;;;6.38;;
75526;SDS011;64107;49.248;7.006;2022-12-07T07:02:40;18.65;;;8.18;;
75526;SDS011;64107;49.248;7.006;2022-12-07T07:05:06;16.10;;;7.10;;
75526;SDS011;64107;49.248;7.006;2022-12-07T07:07:32;14.52;;;7.68;;
75526;SDS011;64107;49.248;7.006;2022-12-07T07:09:58;16.92;;;8.57;;
75526;SDS011;64107;49.248;7.006;2022-12-07T07:12:24;20.65;;;9.27;;
75526;SDS011;64107;49.248;7.006;2022-12-07T07:14:50;15.68;;;7.60;;
75526;SDS011;64107;49.248;7.006;2022-12-07T07:17:16;6.63;;;3.17;;
75526;SDS011;64107;49.248;7.006;2022-12-07T07:19:42;9.32;;;5.20;;
75526;SDS011;64107;49.248;7.006;2022-12-07T07:22:08;19.38;;;8.27;;
75526;SDS011;64107;49.248;7.006;2022-12-07T07:24:34;14.90;;;7.40;;
75526;SDS011;64107;49.248;7.006;2022-12-07T07:27:00;25.83;;;10.70;;
75526;SDS011;64107;49.248;7.006;2022-12-07T07:29:27;15.52;;;7.85;;
75526;SDS011;64107;49.248;7.006;2022-12-07T07:31:53;21.17;;;8.50;;
75526;SDS011;64107;49.248;7.006;2022-12-07T07:34:19;20.13;;;7.60;;
75526;SDS011;64107;49.248;7.006;2022-12-07T07:36:45;16.42;;;6.40;;
75526;SDS011;64107;49.248;7.006;2022-12-07T07:39:11;20.33;;;8.93;;
75526;SDS011;64107;49.248;7.006;2022-12-07T07:41:37;18.00;;;8.55;;
75526;SDS011;64107;49.248;7.006;2022-12-07T07:44:03;18.25;;;7.47;;
75526;SDS011;64107;49.248;7.006;2022-12-07T07:46:29;9.70;;;5.50;;
75526;SDS011;64107;49.248;7.006;2022-12-07T07:48:58;17.42;;;7.85;;
75526;SDS011;64107;49.248;7.006;2022-12-07T07:51:24;17.55;;;7.15;;
75526;SDS011;64107;49.248;7.006;2022-12-07T07:53:50;16.80;;;6.03;;
75526;SDS011;64107;49.248;7.006;2022-12-07T07:58:42;19.23;;;9.07;;
75526;SDS011;64107;49.248;7.006;2022-12-07T08:03:34;18.80;;;8.93;;
75526;SDS011;64107;49.248;7.006;2022-12-07T08:06:03;17.85;;;7.00;;
75526;SDS011;64107;49.248;7.006;2022-12-07T08:08:30;17.50;;;7.30;;
75526;SDS011;64107;49.248;7.006;2022-12-07T08:10:56;11.18;;;5.13;;
75526;SDS011;64107;49.248;7.006;2022-12-07T08:13:26;8.70;;;3.90;;
75526;SDS011;64107;49.248;7.006;2022-12-07T08:18:20;20.88;;;7.63;;
75526;SDS011;64107;49.248;7.006;2022-12-07T08:20:46;17.63;;;8.57;;
75526;SDS011;64107;49.248;7.006;2022-12-07T08:23:13;10.57;;;4.38;;
75526;SDS011;64107;49.248;7.006;2022-12-07T08:25:39;16.42;;;8.20;;
75526;SDS011;64107;49.248;7.006;2022-12-07T08:28:06;18.73;;;8.93;;
75526;SDS011;64107;49.248;7.006;2022-12-07T08:30:32;20.42;;;9.73;;
75526;SDS011;64107;49.248;7.006;2022-12-07T08:32:58;15.57;;;6.38;;
75526;SDS011;64107;49.248;7.006;2022-12-07T08:35:24;18.67;;;9.90;;
75526;SDS011;64107;49.248;7.006;2022-12-07T08:37:51;16.98;;;7.18;;
75526;SDS011;64107;49.248;7.006;2022-12-07T08:40:17;25.52;;;10.23;;
75526;SDS011;64107;49.248;7.006;2022-12-07T08:42:44;18.92;;;9.45;;
75526;SDS011;64107;49.248;7.006;2022-12-07T08:45:14;23.83;;;9.82;;
75526;SDS011;64107;49.248;7.006;2022-12-07T08:50:13;12.23;;;5.60;;
75526;SDS011;64107;49.248;7.006;2022-12-07T08:52:40;13.55;;;6.38;;
75526;SDS011;64107;49.248;7.006;2022-12-07T08:55:06;13.23;;;6.53;;
75526;SDS011;64107;49.248;7.006;2022-12-07T08:57:34;20.50;;;9.23;;
75526;SDS011;64107;49.248;7.006;2022-12-07T09:00:00;12.52;;;5.57;;
75526;SDS011;64107;49.248;7.006;2022-12-07T09:02:27;16.50;;;6.07;;
75526;SDS011;64107;49.248;7.006;2022-12-07T09:04:53;9.18;;;4.70;;
75526;SDS011;64107;49.248;7.006;2022-12-07T09:07:19;13.23;;;6.53;;
75526;SDS011;64107;49.248;7.006;2022-12-07T09:09:45;21.13;;;9.23;;
75526;SDS011;64107;49.248;7.006;2022-12-07T09:12:11;23.27;;;9.85;;
75526;SDS011;64107;49.248;7.006;2022-12-07T09:14:37;8.75;;;6.25;;
75526;SDS011;64107;49.248;7.006;2022-12-07T09:17:10;16.65;;;7.63;;
75526;SDS011;64107;49.248;7.006;2022-12-07T09:19:37;21.38;;;9.05;;
75526;SDS011;64107;49.248;7.006;2022-12-07T09:22:04;22.55;;;10.68;;
75526;SDS011;64107;49.248;7.006;2022-12-07T09:24:30;19.98;;;8.95;;
75526;SDS011;64107;49.248;7.006;2022-12-07T09:26:57;18.85;;;5.28;;
75526;SDS011;64107;49.248;7.006;2022-12-07T09:29:23;18.23;;;7.53;;
75526;SDS011;64107;49.248;7.006;2022-12-07T09:31:50;19.98;;;9.70;;
75526;SDS011;64107;49.248;7.006;2022-12-07T09:34:16;4.47;;;3.60;;
75526;SDS011;64107;49.248;7.006;2022-12-07T09:39:08;22.70;;;10.00;;
75526;SDS011;64107;49.248;7.006;2022-12-07T09:41:37;15.98;;;7.32;;
75526;SDS011;64107;49.248;7.006;2022-12-07T09:44:06;16.50;;;6.30;;
75526;SDS011;64107;49.248;7.006;2022-12-07T09:46:39;8.75;;;5.60;;
75526;SDS011;64107;49.248;7.006;2022-12-07T09:49:09;22.88;;;10.52;;
75526;SDS011;64107;49.248;7.006;2022-12-07T09:51:38;13.10;;;6.13;;
75526;SDS011;64107;49.248;7.006;2022-12-07T09:54:05;19.60;;;8.32;;
75526;SDS011;64107;49.248;7.006;2022-12-07T09:56:31;14.23;;;6.35;;
75526;SDS011;64107;49.248;7.006;2022-12-07T09:58:58;23.90;;;7.45;;
75526;SDS011;64107;49.248;7.006;2022-12-07T10:01:27;21.23;;;9.75;;
75526;SDS011;64107;49.248;7.006;2022-12-07T10:03:59;20.10;;;9.95;;
75526;SDS011;64107;49.248;7.006;2022-12-07T10:06:32;19.73;;;8.00;;
75526;SDS011;64107;49.248;7.006;2022-12-07T10:08:58;22.95;;;10.00;;
75526;SDS011;64107;49.248;7.006;2022-12-07T10:13:53;18.77;;;7.70;;
75526;SDS011;64107;49.248;7.006;2022-12-07T10:16:37;16.58;;;5.85;;
75526;SDS011;64107;49.248;7.006;2022-12-07T10:21:42;15.07;;;6.57;;
75526;SDS011;64107;49.248;7.006;2022-12-07T10:24:25;20.02;;;9.13;;
75526;SDS011;64107;49.248;7.006;2022-12-07T10:26:52;17.83;;;8.02;;
75526;SDS011;64107;49.248;7.006;2022-12-07T10:29:30;14.75;;;5.93;;
75526;SDS011;64107;49.248;7.006;2022-12-07T10:34:25;14.15;;;6.45;;
75526;SDS011;64107;49.248;7.006;2022-12-07T10:36:54;19.98;;;9.02;;
75526;SDS011;64107;49.248;7.006;2022-12-07T10:39:48;21.63;;;10.18;;
75526;SDS011;64107;49.248;7.006;2022-12-07T10:42:19;15.30;;;7.50;;
75526;SDS011;64107;49.248;7.006;2022-12-07T10:47:38;20.33;;;7.63;;
75526;SDS011;64107;49.248;7.006;2022-12-07T10:56:19;19.92;;;8.02;;
75526;SDS011;64107;49.248;7.006;2022-12-07T11:01:51;7.88;;;4.20;;
75526;SDS011;64107;49.248;7.006;2022-12-07T11:12:32;13.23;;;6.03;;
75526;SDS011;64107;49.248;7.006;2022-12-07T11:15:04;12.40;;;7.18;;
75526;SDS011;64107;49.248;7.006;2022-12-07T11:26:04;10.27;;;4.57;;
75526;SDS011;64107;49.248;7.006;2022-12-07T11:29:09;7.43;;;2.83;;
75526;SDS011;64107;49.248;7.006;2022-12-07T11:32:02;5.13;;;2.40;;
75526;SDS011;64107;49.248;7.006;2022-12-07T11:34:48;9.27;;;4.03;;
75526;SDS011;64107;49.248;7.006;2022-12-07T11:37:33;11.48;;;4.25;;
75526;SDS011;64107;49.248;7.006;2022-12-07T11:40:02;8.63;;;3.55;;
75526;SDS011;64107;49.248;7.006;2022-12-07T11:42:46;6.70;;;2.75;;
75526;SDS011;64107;49.248;7.006;2022-12-07T11:45:33;8.75;;;3.42;;
75526;SDS011;64107;49.248;7.006;2022-12-07T11:50:39;5.15;;;3.20;;
75526;SDS011;64107;49.248;7.006;2022-12-07T11:53:19;5.68;;;2.90;;
75526;SDS011;64107;49.248;7.006;2022-12-07T12:04:06;6.80;;;4.00;;
75526;SDS011;64107;49.248;7.006;2022-12-07T12:06:42;5.35;;;2.58;;
75526;SDS011;64107;49.248;7.006;2022-12-07T12:09:20;4.07;;;1.73;;
75526;SDS011;64107;49.248;7.006;2022-12-07T12:15:00;7.63;;;3.75;;
75526;SDS011;64107;49.248;7.006;2022-12-07T12:20:32;6.00;;;3.13;;
75526;SDS011;64107;49.248;7.006;2022-12-07T12:23:27;5.50;;;2.95;;
75526;SDS011;64107;49.248;7.006;2022-12-07T12:25:57;6.30;;;2.13;;
75526;SDS011;64107;49.248;7.006;2022-12-07T12:28:29;5.05;;;3.15;;
75526;SDS011;64107;49.248;7.006;2022-12-07T12:33:56;3.15;;;1.63;;
75526;SDS011;64107;49.248;7.006;2022-12-07T12:54:15;5.07;;;2.75;;
75526;SDS011;64107;49.248;7.006;2022-12-07T12:56:51;6.00;;;2.53;;
75526;SDS011;64107;49.248;7.006;2022-12-07T13:02:39;10.10;;;5.00;;
75526;SDS011;64107;49.248;7.006;2022-12-07T13:20:53;2.83;;;1.92;;
75526;SDS011;64107;49.248;7.006;2022-12-07T13:28:45;8.32;;;4.22;;
75526;SDS011;64107;49.248;7.006;2022-12-07T13:31:19;9.38;;;3.75;;
75526;SDS011;64107;49.248;7.006;2022-12-07T13:33:52;6.15;;;3.55;;
75526;SDS011;64107;49.248;7.006;2022-12-07T13:39:09;6.70;;;3.90;;
75526;SDS011;64107;49.248;7.006;2022-12-07T13:41:42;3.90;;;2.78;;
75526;SDS011;64107;49.248;7.006;2022-12-07T13:44:12;3.78;;;2.58;;
75526;SDS011;64107;49.248;7.006;2022-12-07T13:46:55;6.85;;;3.15;;
75526;SDS011;64107;49.248;7.006;2022-12-07T13:49:38;7.75;;;4.07;;
75526;SDS011;64107;49.248;7.006;2022-12-07T13:52:18;7.90;;;3.67;;
75526;SDS011;64107;49.248;7.006;2022-12-07T13:54:58;6.68;;;3.80;;
75526;SDS011;64107;49.248;7.006;2022-12-07T13:57:26;4.22;;;2.47;;
75526;SDS011;64107;49.248;7.006;2022-12-07T13:59:54;8.90;;;4.18;;
75526;SDS011;64107;49.248;7.006;2022-12-07T14:02:21;5.35;;;3.47;;
75526;SDS011;64107;49.248;7.006;2022-12-07T14:04:52;4.93;;;3.20;;
75526;SDS011;64107;49.248;7.006;2022-12-07T14:07:30;5.43;;;3.03;;
75526;SDS011;64107;49.248;7.006;2022-12-07T14:09:59;6.18;;;3.33;;
75526;SDS011;64107;49.248;7.006;2022-12-07T14:12:28;11.43;;;4.40;;
75526;SDS011;64107;49.248;7.006;2022-12-07T14:14:55;4.63;;;2.58;;
75526;SDS011;64107;49.248;7.006;2022-12-07T14:17:22;2.92;;;1.67;;
75526;SDS011;64107;49.248;7.006;2022-12-07T14:19:50;4.90;;;2.33;;
75526;SDS011;64107;49.248;7.006;2022-12-07T14:22:21;4.70;;;2.75;;
75526;SDS011;64107;49.248;7.006;2022-12-07T14:24:48;3.58;;;2.75;;
75526;SDS011;64107;49.248;7.006;2022-12-07T14:27:23;3.25;;;2.72;;
75526;SDS011;64107;49.248;7.006;2022-12-07T14:29:55;2.90;;;1.77;;
75526;SDS011;64107;49.248;7.006;2022-12-07T14:32:23;7.97;;;4.05;;
75526;SDS011;64107;49.248;7.006;2022-12-07T14:37:28;5.72;;;2.65;;
75526;SDS011;64107;49.248;7.006;2022-12-07T14:39:55;8.07;;;4.13;;
75526;SDS011;64107;49.248;7.006;2022-12-07T14:42:22;7.30;;;2.38;;
75526;SDS011;64107;49.248;7.006;2022-12-07T14:44:49;2.83;;;1.85;;
75526;SDS011;64107;49.248;7.006;2022-12-07T14:47:15;4.45;;;2.25;;
75526;SDS011;64107;49.248;7.006;2022-12-07T14:49:41;7.35;;;3.42;;
75526;SDS011;64107;49.248;7.006;2022-12-07T14:52:11;3.50;;;1.90;;
75526;SDS011;64107;49.248;7.006;2022-12-07T14:54:41;3.38;;;1.98;;
75526;SDS011;64107;49.248;7.006;2022-12-07T14:57:08;6.63;;;3.47;;
75526;SDS011;64107;49.248;7.006;2022-12-07T14:59:35;3.13;;;1.70;;
75526;SDS011;64107;49.248;7.006;2022-12-07T15:02:01;6.13;;;2.88;;
75526;SDS011;64107;49.248;7.006;2022-12-07T15:04:27;6.82;;;3.38;;
75526;SDS011;64107;49.248;7.006;2022-12-07T15:09:20;8.07;;;3.17;;
75526;SDS011;64107;49.248;7.006;2022-12-07T15:11:46;10.70;;;3.10;;
75526;SDS011;64107;49.248;7.006;2022-12-07T15:14:12;5.70;;;3.00;;
75526;SDS011;64107;49.248;7.006;2022-12-07T15:16:40;4.68;;;2.22;;
75526;SDS011;64107;49.248;7.006;2022-12-07T15:19:11;1.65;;;0.98;;
75526;SDS011;64107;49.248;7.006;2022-12-07T15:21:42;4.93;;;2.55;;
75526;SDS011;64107;49.248;7.006;2022-12-07T15:24:11;2.30;;;1.20;;
75526;SDS011;64107;49.248;7.006;2022-12-07T15:26:38;6.68;;;3.83;;
75526;SDS011;64107;49.248;7.006;2022-12-07T15:29:05;6.90;;;3.80;;
75526;SDS011;64107;49.248;7.006;2022-12-07T15:31:32;5.90;;;2.60;;
75526;SDS011;64107;49.248;7.006;2022-12-07T15:33:59;3.55;;;2.50;;
75526;SDS011;64107;49.248;7.006;2022-12-07T15:36:26;6.75;;;3.00;;
75526;SDS011;64107;49.248;7.006;2022-12-07T15:38:53;6.13;;;2.53;;
75526;SDS011;64107;49.248;7.006;2022-12-07T15:41:19;3.55;;;1.63;;
75526;SDS011;64107;49.248;7.006;2022-12-07T15:43:45;3.60;;;3.13;;
75526;SDS011;64107;49.248;7.006;2022-12-07T15:46:34;5.60;;;2.60;;
75526;SDS011;64107;49.248;7.006;2022-12-07T15:49:02;8.60;;;3.20;;
75526;SDS011;64107;49.248;7.006;2022-12-07T15:51:28;5.60;;;2.33;;
75526;SDS011;64107;49.248;7.006;2022-12-07T15:53:54;6.47;;;3.97;;
75526;SDS011;64107;49.248;7.006;2022-12-07T15:56:22;9.35;;;4.03;;
75526;SDS011;64107;49.248;7.006;2022-12-07T16:01:15;3.83;;;2.00;;
75526;SDS011;64107;49.248;7.006;2022-12-07T16:03:42;9.30;;;4.03;;
75526;SDS011;64107;49.248;7.006;2022-12-07T16:06:09;9.73;;;4.40;;
75526;SDS011;64107;49.248;7.006;2022-12-07T16:08:35;3.22;;;1.70;;
75526;SDS011;64107;49.248;7.006;2022-12-07T16:11:05;7.43;;;3.85;;
75526;SDS011;64107;49.248;7.006;2022-12-07T16:13:31;8.15;;;3.88;;
75526;SDS011;64107;49.248;7.006;2022-12-07T16:15:58;13.23;;;4.55;;
75526;SDS011;64107;49.248;7.006;2022-12-07T16:18:28;11.73;;;4.43;;
75526;SDS011;64107;49.248;7.006;2022-12-07T16:20:54;4.80;;;2.50;;
75526;SDS011;64107;49.248;7.006;2022-12-07T16:23:20;7.30;;;3.97;;
75526;SDS011;64107;49.248;7.006;2022-12-07T16:25:46;7.60;;;3.53;;
75526;SDS011;64107;49.248;7.006;2022-12-07T16:28:12;8.65;;;4.68;;
75526;SDS011;64107;49.248;7.006;2022-12-07T16:30:38;7.70;;;3.90;;
75526;SDS011;64107;49.248;7.006;2022-12-07T16:33:04;8.73;;;4.22;;
75526;SDS011;64107;49.248;7.006;2022-12-07T16:35:30;8.20;;;4.13;;
75526;SDS011;64107;49.248;7.006;2022-12-07T16:37:57;9.13;;;3.45;;
75526;SDS011;64107;49.248;7.006;2022-12-07T16:40:23;9.80;;;4.63;;
75526;SDS011;64107;49.248;7.006;2022-12-07T16:42:49;12.52;;;5.05;;
75526;SDS011;64107;49.248;7.006;2022-12-07T16:47:41;9.48;;;4.88;;
75526;SDS011;64107;49.248;7.006;2022-12-07T16:52:33;13.45;;;5.20;;
75526;SDS011;64107;49.248;7.006;2022-12-07T16:54:59;12.63;;;4.93;;
75526;SDS011;64107;49.248;7.006;2022-12-07T16:57:25;10.82;;;4.63;;
75526;SDS011;64107;49.248;7.006;2022-12-07T16:59:51;10.10;;;4.75;;
75526;SDS011;64107;49.248;7.006;2022-12-07T17:04:44;21.83;;;12.57;;
75526;SDS011;64107;49.248;7.006;2022-12-07T17:07:10;14.98;;;8.20;;
75526;SDS011;64107;49.248;7.006;2022-12-07T17:09:36;11.88;;;5.80;;
75526;SDS011;64107;49.248;7.006;2022-12-07T17:12:02;7.63;;;3.92;;
75526;SDS011;64107;49.248;7.006;2022-12-07T17:14:30;7.85;;;3.75;;
75526;SDS011;64107;49.248;7.006;2022-12-07T17:17:14;5.63;;;2.95;;
75526;SDS011;64107;49.248;7.006;2022-12-07T17:19:40;6.97;;;3.88;;
75526;SDS011;64107;49.248;7.006;2022-12-07T17:22:07;9.90;;;4.80;;
75526;SDS011;64107;49.248;7.006;2022-12-07T17:24:36;8.50;;;4.30;;
75526;SDS011;64107;49.248;7.006;2022-12-07T17:27:02;9.85;;;4.90;;
75526;SDS011;64107;49.248;7.006;2022-12-07T17:29:28;10.80;;;6.13;;
75526;SDS011;64107;49.248;7.006;2022-12-07T17:31:54;10.38;;;6.15;;
75526;SDS011;64107;49.248;7.006;2022-12-07T17:34:20;4.80;;;3.10;;
75526;SDS011;64107;49.248;7.006;2022-12-07T17:36:46;4.40;;;2.65;;
75526;SDS011;64107;49.248;7.006;2022-12-07T17:39:15;9.98;;;5.65;;
75526;SDS011;64107;49.248;7.006;2022-12-07T17:41:41;10.27;;;3.40;;
75526;SDS011;64107;49.248;7.006;2022-12-07T17:46:53;7.15;;;3.95;;
75526;SDS011;64107;49.248;7.006;2022-12-07T17:49:21;9.63;;;4.22;;
75526;SDS011;64107;49.248;7.006;2022-12-07T17:51:47;8.68;;;4.47;;
75526;SDS011;64107;49.248;7.006;2022-12-07T17:54:32;9.45;;;5.10;;
75526;SDS011;64107;49.248;7.006;2022-12-07T17:56:58;6.50;;;2.60;;
75526;SDS011;64107;49.248;7.006;2022-12-07T17:59:24;5.95;;;3.55;;
75526;SDS011;64107;49.248;7.006;2022-12-07T18:01:51;13.60;;;5.43;;
75526;SDS011;64107;49.248;7.006;2022-12-07T18:04:17;6.75;;;3.40;;
75526;SDS011;64107;49.248;7.006;2022-12-07T18:06:43;4.60;;;2.80;;